Time;durP1;ratioP1;P1;durP2;ratioP2;P2;SDS_P1;SDS_P2;PMS_P1;PMS_P2;Temp;Humidity;BMP_temperature;BMP_pressure;BME280_temperature;BME280_humidity;BME280_pressure;Samples;Min_cycle;Max_cycle;Signal;HPM_P1;HPM_P2
2023/01/09 00:00:46;;;;;;;2.60;2.40;;;5.60;99.90;;;;;;5031448;28;20878;-52
2023/01/09 00:03:15;;;;;;;4.13;1.80;;;5.60;99.90;;;;;;5036718;28;20220;-46
2023/01/09 00:05:45;;;;;;;2.23;2.10;;;5.60;99.90;;;;;;5044342;28;20195;-56
2023/01/09 00:08:17;;;;;;;4.10;2.43;;;5.60;99.90;;;;;;5019095;28;20219;-47
2023/01/09 00:10:51;;;;;;;2.30;2.10;;;5.50;99.90;;;;;;5019266;28;20195;-57
2023/01/09 00:13:24;;;;;;;1.93;1.80;;;5.50;99.90;;;;;;5051807;28;20214;-52
2023/01/09 00:15:56;;;;;;;1.97;1.87;;;5.50;99.90;;;;;;5026074;28;20203;-56
2023/01/09 00:18:26;;;;;;;2.07;1.93;;;5.50;99.90;;;;;;5026881;28;20227;-49
2023/01/09 00:21:02;;;;;;;3.10;1.97;;;5.50;99.90;;;;;;5026551;28;20259;-53
2023/01/09 00:23:32;;;;;;;2.40;2.20;;;5.50;99.90;;;;;;5008757;28;20584;-43
2023/01/09 00:26:11;;;;;;;1.63;1.53;;;5.40;99.90;;;;;;5036368;28;20226;-57
2023/01/09 00:28:44;;;;;;;1.63;1.53;;;5.40;99.90;;;;;;5026600;28;20328;-53
2023/01/09 00:31:17;;;;;;;1.83;1.73;;;5.40;99.90;;;;;;5029982;28;20228;-52
2023/01/09 00:34:02;;;;;;;4.27;1.73;;;5.40;99.90;;;;;;5030891;28;20215;-52
2023/01/09 00:36:33;;;;;;;2.13;2.00;;;5.40;99.90;;;;;;5035412;28;20195;-56
2023/01/09 00:39:00;;;;;;;2.07;1.87;;;5.40;99.90;;;;;;5024766;28;20580;-53
2023/01/09 00:41:33;;;;;;;2.90;2.27;;;5.40;99.90;;;;;;5016605;28;20220;-46
2023/01/09 00:44:04;;;;;;;2.10;1.90;;;5.40;99.90;;;;;;5025393;28;20701;-54
2023/01/09 00:46:36;;;;;;;3.07;1.90;;;5.50;99.90;;;;;;5021268;28;20870;-50
2023/01/09 00:49:05;;;;;;;4.67;2.00;;;5.40;99.90;;;;;;5025468;28;20200;-51
2023/01/09 00:51:31;;;;;;;2.43;2.17;;;5.50;99.90;;;;;;5021049;28;20211;-53
2023/01/09 00:53:58;;;;;;;2.27;2.07;;;5.40;99.90;;;;;;5024639;28;20200;-55
2023/01/09 00:56:26;;;;;;;2.13;2.00;;;5.50;99.90;;;;;;5016335;28;20208;-49
2023/01/09 00:58:53;;;;;;;2.13;1.93;;;5.50;99.90;;;;;;5037166;28;20195;-55
2023/01/09 01:01:21;;;;;;;2.23;1.60;;;5.60;99.90;;;;;;5026022;28;20204;-45
2023/01/09 01:03:50;;;;;;;3.63;2.00;;;5.60;99.90;;;;;;5029691;28;20215;-52
2023/01/09 01:09:01;;;;;;;2.27;2.10;;;5.70;99.90;;;;;;5030252;28;20196;-53
2023/01/09 01:11:28;;;;;;;1.80;1.70;;;5.70;99.90;;;;;;5013975;28;20208;-46
2023/01/09 01:13:54;;;;;;;1.77;1.57;;;5.70;99.90;;;;;;5030083;28;20262;-57
2023/01/09 01:16:21;;;;;;;2.50;1.90;;;5.70;99.90;;;;;;5022121;28;20211;-49
2023/01/09 01:18:50;;;;;;;2.10;1.90;;;5.70;99.90;;;;;;5027408;28;20242;-55
2023/01/09 01:21:17;;;;;;;2.40;1.90;;;5.70;99.90;;;;;;5033356;28;20204;-50
2023/01/09 01:23:44;;;;;;;1.73;1.63;;;5.80;99.90;;;;;;5028955;28;20211;-56
2023/01/09 01:26:14;;;;;;;2.40;2.03;;;5.80;99.90;;;;;;5034724;28;20204;-48
2023/01/09 01:28:41;;;;;;;1.83;1.73;;;5.80;99.90;;;;;;5029153;28;20207;-54
2023/01/09 01:31:08;;;;;;;2.57;1.70;;;5.80;99.90;;;;;;5028095;28;20200;-56
2023/01/09 01:33:36;;;;;;;3.00;1.80;;;5.80;99.90;;;;;;5020370;28;20188;-57
2023/01/09 01:36:06;;;;;;;3.03;1.90;;;5.80;99.90;;;;;;5024203;28;20211;-55
2023/01/09 01:38:34;;;;;;;2.23;1.83;;;5.80;99.90;;;;;;5019721;28;20223;-57
2023/01/09 01:41:01;;;;;;;2.30;2.10;;;5.80;99.90;;;;;;5023127;28;20204;-56
2023/01/09 01:43:29;;;;;;;2.50;2.10;;;5.80;99.90;;;;;;5018799;28;20220;-45
2023/01/09 01:45:56;;;;;;;1.70;1.57;;;5.80;99.90;;;;;;5027270;28;20262;-56
2023/01/09 01:48:27;;;;;;;1.70;1.60;;;5.80;99.90;;;;;;5022001;28;20220;-47
2023/01/09 01:50:59;;;;;;;2.90;1.93;;;5.80;99.90;;;;;;5023946;28;20689;-50
2023/01/09 01:53:31;;;;;;;1.90;1.80;;;5.80;99.90;;;;;;5020053;28;20551;-45
2023/01/09 01:56:06;;;;;;;3.33;2.10;;;5.80;99.90;;;;;;5023961;28;20282;-56
2023/01/09 01:58:33;;;;;;;2.30;1.87;;;5.80;99.90;;;;;;5016760;28;20211;-57
2023/01/09 02:01:00;;;;;;;4.00;2.00;;;5.80;99.90;;;;;;5034236;28;20195;-49
2023/01/09 02:03:28;;;;;;;1.77;1.53;;;5.80;99.90;;;;;;5019549;28;20319;-48
2023/01/09 02:05:55;;;;;;;1.97;1.87;;;5.80;99.90;;;;;;5032738;28;20724;-47
2023/01/09 02:08:22;;;;;;;1.73;1.63;;;5.80;99.90;;;;;;5029324;28;20211;-48
2023/01/09 02:10:52;;;;;;;1.60;1.50;;;5.90;99.90;;;;;;5034392;28;20191;-52
2023/01/09 02:13:19;;;;;;;2.00;1.80;;;5.90;99.90;;;;;;5013985;28;20215;-48
2023/01/09 02:16:00;;;;;;;2.43;2.00;;;5.90;99.90;;;;;;5032247;28;20270;-54
2023/01/09 02:18:45;;;;;;;2.03;1.90;;;5.90;99.90;;;;;;5029764;28;20218;-49
2023/01/09 02:21:19;;;;;;;1.93;1.70;;;5.90;99.90;;;;;;5022141;28;20299;-48
2023/01/09 02:24:08;;;;;;;1.87;1.77;;;5.90;99.90;;;;;;5031297;28;20220;-56
2023/01/09 02:26:54;;;;;;;2.27;1.93;;;5.90;99.90;;;;;;5022296;28;20283;-52
2023/01/09 02:29:56;;;;;;;4.97;1.70;;;6.00;99.90;;;;;;5016161;28;20289;-50
2023/01/09 02:32:35;;;;;;;1.67;1.57;;;6.00;99.90;;;;;;5024186;28;20208;-47
2023/01/09 02:35:16;;;;;;;2.33;1.83;;;6.00;99.90;;;;;;5024450;28;20233;-55
2023/01/09 02:37:48;;;;;;;3.90;1.80;;;6.00;99.90;;;;;;5029999;28;20214;-54
2023/01/09 02:40:24;;;;;;;2.20;1.60;;;6.10;99.90;;;;;;5024679;28;20204;-50
2023/01/09 02:42:53;;;;;;;2.10;1.90;;;6.10;99.90;;;;;;5029227;28;20758;-57
2023/01/09 02:45:20;;;;;;;1.90;1.60;;;6.10;99.90;;;;;;5015866;28;20284;-55
2023/01/09 02:47:50;;;;;;;1.80;1.70;;;6.10;99.90;;;;;;5028195;28;20985;-55
2023/01/09 02:50:24;;;;;;;2.43;1.50;;;6.10;99.90;;;;;;5035527;28;20277;-52
2023/01/09 02:53:31;;;;;;;1.90;1.80;;;6.20;99.90;;;;;;5028912;28;20204;-57
2023/01/09 02:56:19;;;;;;;2.10;1.90;;;6.20;99.90;;;;;;5038807;28;20708;-53
2023/01/09 02:59:03;;;;;;;2.57;2.10;;;6.30;99.90;;;;;;5025034;28;20202;-55
2023/01/09 03:01:45;;;;;;;2.00;1.83;;;6.30;99.90;;;;;;5043090;28;20208;-48
2023/01/09 03:04:20;;;;;;;4.33;1.77;;;6.30;99.90;;;;;;5023064;28;20768;-50
2023/01/09 03:06:58;;;;;;;1.93;1.83;;;6.30;99.90;;;;;;5024525;28;20274;-55
2023/01/09 03:09:31;;;;;;;2.87;1.80;;;6.40;99.90;;;;;;5042406;28;20264;-47
2023/01/09 03:12:05;;;;;;;2.00;1.90;;;6.40;99.90;;;;;;5038106;28;20595;-54
2023/01/09 03:14:34;;;;;;;1.77;1.67;;;6.40;99.90;;;;;;5009534;28;22164;-51
2023/01/09 03:17:07;;;;;;;1.67;1.40;;;6.50;99.90;;;;;;5033055;28;20231;-54
2023/01/09 03:19:37;;;;;;;3.33;1.67;;;6.50;99.90;;;;;;5024141;28;20840;-55
2023/01/09 03:22:05;;;;;;;2.50;1.90;;;6.60;99.90;;;;;;5031480;28;20724;-55
2023/01/09 03:24:33;;;;;;;1.70;1.60;;;6.60;99.90;;;;;;5027614;28;20286;-55
2023/01/09 03:27:01;;;;;;;2.37;1.70;;;6.60;99.90;;;;;;5027694;28;20728;-53
2023/01/09 03:29:29;;;;;;;2.00;1.83;;;6.60;99.90;;;;;;5013333;28;20266;-45
2023/01/09 03:31:57;;;;;;;1.97;1.80;;;6.70;99.90;;;;;;5040372;28;20519;-56
2023/01/09 03:34:25;;;;;;;2.53;1.93;;;6.70;99.90;;;;;;5026159;28;20651;-46
2023/01/09 03:36:54;;;;;;;2.97;2.10;;;6.70;99.90;;;;;;5026548;28;20226;-56
2023/01/09 03:39:22;;;;;;;2.33;1.90;;;6.70;99.90;;;;;;5031499;28;20230;-53
2023/01/09 03:41:50;;;;;;;5.37;1.90;;;6.70;99.90;;;;;;5041791;28;20196;-53
2023/01/09 03:44:18;;;;;;;2.33;1.73;;;6.70;99.90;;;;;;5044238;28;20215;-52
2023/01/09 03:46:46;;;;;;;3.13;1.93;;;6.80;99.90;;;;;;5019680;28;20575;-55
2023/01/09 03:49:13;;;;;;;2.50;1.60;;;6.80;99.90;;;;;;5037925;28;20203;-46
2023/01/09 03:51:43;;;;;;;2.27;2.10;;;6.80;99.90;;;;;;5023466;28;20199;-56
2023/01/09 03:54:15;;;;;;;2.23;1.83;;;6.80;99.90;;;;;;5035342;28;20215;-55
2023/01/09 03:56:44;;;;;;;2.67;2.10;;;6.80;99.90;;;;;;5034275;28;20265;-54
2023/01/09 03:59:11;;;;;;;2.10;1.90;;;6.80;99.90;;;;;;5041106;28;20703;-51
2023/01/09 04:01:39;;;;;;;1.80;1.70;;;6.80;99.90;;;;;;5026277;28;20423;-55
2023/01/09 04:04:07;;;;;;;1.87;1.73;;;6.80;99.90;;;;;;5038110;28;20261;-53
2023/01/09 04:06:40;;;;;;;1.83;1.73;;;6.80;99.90;;;;;;5032828;28;20907;-52
2023/01/09 04:09:13;;;;;;;2.40;2.13;;;6.80;99.90;;;;;;5027613;28;20291;-55
2023/01/09 04:11:46;;;;;;;1.73;1.63;;;6.80;99.90;;;;;;5031695;28;20490;-55
2023/01/09 04:14:13;;;;;;;3.27;1.70;;;6.80;99.90;;;;;;5040186;28;20234;-52
2023/01/09 04:16:41;;;;;;;2.00;1.80;;;6.80;99.90;;;;;;5007710;28;20219;-54
2023/01/09 04:19:10;;;;;;;2.23;2.07;;;6.80;99.90;;;;;;5032605;28;20254;-54
2023/01/09 04:21:38;;;;;;;2.27;2.00;;;6.80;99.90;;;;;;5031883;28;20782;-54
2023/01/09 04:24:08;;;;;;;4.20;1.67;;;6.80;99.90;;;;;;5032919;28;20580;-56
2023/01/09 04:26:38;;;;;;;2.30;2.10;;;6.80;99.90;;;;;;5040020;28;20294;-50
2023/01/09 04:29:08;;;;;;;2.50;2.30;;;6.80;99.90;;;;;;5037658;28;20219;-56
2023/01/09 04:31:36;;;;;;;4.80;2.60;;;6.90;99.90;;;;;;5022217;28;20279;-55
2023/01/09 04:34:04;;;;;;;2.90;2.70;;;6.80;99.90;;;;;;5014482;28;20261;-56
2023/01/09 04:36:33;;;;;;;2.60;2.37;;;6.80;99.90;;;;;;5026849;28;20191;-54
2023/01/09 04:39:03;;;;;;;3.40;3.10;;;6.90;99.90;;;;;;5024495;28;20228;-56
2023/01/09 04:41:50;;;;;;;3.70;2.63;;;6.90;99.90;;;;;;5029819;28;20258;-47
2023/01/09 04:44:21;;;;;;;3.93;1.97;;;6.90;99.90;;;;;;5033313;28;20223;-45
2023/01/09 04:46:49;;;;;;;2.73;2.07;;;6.90;99.90;;;;;;5023912;28;20212;-56
2023/01/09 04:49:17;;;;;;;2.23;2.03;;;6.90;99.90;;;;;;5020134;28;20216;-49
2023/01/09 04:51:48;;;;;;;2.70;1.87;;;6.90;99.90;;;;;;5028623;28;20511;-55
2023/01/09 04:54:16;;;;;;;4.30;2.03;;;6.90;99.90;;;;;;5043967;28;20204;-49
2023/01/09 04:56:46;;;;;;;2.40;1.97;;;6.90;99.90;;;;;;5023731;28;20373;-52
2023/01/09 04:59:14;;;;;;;1.87;1.77;;;6.90;99.90;;;;;;5024508;28;20200;-44
2023/01/09 05:01:42;;;;;;;2.60;2.40;;;6.90;99.90;;;;;;5019094;28;20258;-49
2023/01/09 05:04:10;;;;;;;3.57;2.20;;;6.90;99.90;;;;;;5011791;28;20216;-53
2023/01/09 05:06:37;;;;;;;2.30;1.93;;;6.90;99.90;;;;;;5028164;28;20264;-53
2023/01/09 05:09:04;;;;;;;2.43;2.07;;;6.90;99.90;;;;;;5027375;28;20690;-51
2023/01/09 05:11:31;;;;;;;3.00;2.40;;;6.80;99.90;;;;;;5030771;28;20203;-56
2023/01/09 05:13:57;;;;;;;2.60;2.30;;;6.80;99.90;;;;;;5025220;28;20192;-54
2023/01/09 05:16:25;;;;;;;2.77;2.00;;;6.80;99.90;;;;;;5031447;28;20207;-47
2023/01/09 05:18:55;;;;;;;2.37;2.10;;;6.80;99.90;;;;;;5037245;28;20211;-53
2023/01/09 05:21:23;;;;;;;2.60;2.40;;;6.80;99.90;;;;;;5011207;28;20722;-42
2023/01/09 05:23:49;;;;;;;4.60;2.60;;;6.80;99.90;;;;;;5029033;28;22300;-54
2023/01/09 05:26:16;;;;;;;3.37;2.53;;;6.80;99.90;;;;;;5021284;28;20232;-45
2023/01/09 05:28:43;;;;;;;2.93;2.50;;;6.80;99.90;;;;;;5029010;28;20223;-53
2023/01/09 05:31:10;;;;;;;3.57;2.23;;;6.80;99.90;;;;;;5029439;28;20219;-44
2023/01/09 05:33:37;;;;;;;2.77;2.07;;;6.80;99.90;;;;;;5028940;28;20199;-55
2023/01/09 05:36:06;;;;;;;3.70;3.23;;;6.80;99.90;;;;;;5020156;28;20207;-51
2023/01/09 05:38:33;;;;;;;4.83;2.87;;;6.80;99.90;;;;;;5024873;28;20216;-50
2023/01/09 05:41:00;;;;;;;3.57;2.60;;;6.90;99.90;;;;;;5021619;28;20697;-46
2023/01/09 05:43:27;;;;;;;4.27;3.07;;;6.80;99.90;;;;;;5029109;28;20207;-53
2023/01/09 05:45:54;;;;;;;5.23;2.97;;;6.80;99.90;;;;;;5025332;28;20223;-49
2023/01/09 05:48:21;;;;;;;2.70;1.73;;;6.80;99.90;;;;;;5026896;28;20838;-56
2023/01/09 05:50:48;;;;;;;13.57;4.73;;;6.80;99.90;;;;;;5037740;28;20203;-47
2023/01/09 05:53:16;;;;;;;5.30;3.00;;;6.80;99.90;;;;;;5016802;28;20401;-49
2023/01/09 05:55:43;;;;;;;1.90;1.70;;;6.80;99.90;;;;;;5032782;28;20206;-50
2023/01/09 05:58:11;;;;;;;15.40;3.30;;;6.80;99.90;;;;;;5026249;28;20251;-51
2023/01/09 06:00:38;;;;;;;5.47;2.90;;;6.80;99.90;;;;;;5041996;28;20199;-54
2023/01/09 06:03:05;;;;;;;6.97;2.20;;;6.90;99.90;;;;;;5020652;28;20261;-47
2023/01/09 06:05:32;;;;;;;5.77;1.80;;;6.80;99.90;;;;;;5033140;28;20632;-51
2023/01/09 06:07:59;;;;;;;5.53;2.47;;;6.90;99.90;;;;;;5013362;28;20227;-43
2023/01/09 06:10:27;;;;;;;7.33;3.23;;;6.90;99.90;;;;;;5028169;28;20734;-53
2023/01/09 06:12:54;;;;;;;8.90;3.40;;;6.90;99.90;;;;;;5033184;28;20199;-44
2023/01/09 06:15:21;;;;;;;4.83;1.93;;;6.90;99.90;;;;;;5030876;28;20179;-55
2023/01/09 06:17:48;;;;;;;5.40;2.07;;;6.90;99.90;;;;;;5026785;28;20223;-45
2023/01/09 06:20:15;;;;;;;2.70;1.70;;;6.90;99.90;;;;;;5020637;28;20202;-51
2023/01/09 06:22:43;;;;;;;3.83;1.83;;;6.90;99.90;;;;;;5021120;28;20207;-53
2023/01/09 06:25:13;;;;;;;3.63;2.10;;;6.90;99.90;;;;;;5034313;28;21067;-56
2023/01/09 06:27:41;;;;;;;1.93;1.50;;;6.90;99.90;;;;;;5045767;28;20223;-47
2023/01/09 06:30:09;;;;;;;3.57;1.50;;;6.80;99.90;;;;;;5029790;28;20935;-48
2023/01/09 06:32:36;;;;;;;1.93;1.70;;;6.90;99.90;;;;;;5029196;28;20187;-51
2023/01/09 06:35:04;;;;;;;1.40;1.30;;;6.90;99.90;;;;;;5026327;28;20213;-48
2023/01/09 06:37:32;;;;;;;1.63;1.37;;;6.90;99.90;;;;;;5017078;28;20297;-55
2023/01/09 06:39:59;;;;;;;1.90;1.60;;;6.90;99.90;;;;;;5031840;28;20363;-46
2023/01/09 06:42:26;;;;;;;1.70;1.57;;;6.90;99.90;;;;;;5033248;28;20211;-54
2023/01/09 06:44:54;;;;;;;3.50;1.90;;;6.90;99.90;;;;;;5041362;28;20241;-45
2023/01/09 06:47:21;;;;;;;4.17;2.40;;;6.90;99.90;;;;;;5033473;28;20246;-52
2023/01/09 06:49:48;;;;;;;3.07;1.90;;;6.80;99.90;;;;;;5038276;28;20203;-46
2023/01/09 06:52:15;;;;;;;4.13;2.87;;;6.90;99.90;;;;;;5014125;28;20212;-45
2023/01/09 06:54:41;;;;;;;3.40;2.03;;;6.90;99.90;;;;;;5044721;28;20191;-53
2023/01/09 06:57:08;;;;;;;4.73;2.20;;;6.90;99.90;;;;;;5031060;28;20215;-52
2023/01/09 06:59:35;;;;;;;8.13;2.70;;;6.90;99.90;;;;;;5039189;28;20206;-48
2023/01/09 07:02:03;;;;;;;4.53;2.67;;;6.90;99.90;;;;;;5033562;28;20200;-43
2023/01/09 07:04:30;;;;;;;3.83;2.53;;;6.90;99.90;;;;;;5031539;28;20226;-54
2023/01/09 07:06:57;;;;;;;4.00;2.10;;;6.90;99.90;;;;;;5022694;28;20825;-45
2023/01/09 07:09:24;;;;;;;4.40;2.13;;;6.90;99.90;;;;;;5018092;28;20200;-50
2023/01/09 07:11:51;;;;;;;2.87;2.57;;;6.90;99.90;;;;;;5031018;28;20234;-47
2023/01/09 07:14:17;;;;;;;2.27;2.07;;;6.90;99.90;;;;;;5029139;28;20441;-51
2023/01/09 07:16:44;;;;;;;2.43;1.80;;;6.90;99.90;;;;;;5035570;28;20693;-47
2023/01/09 07:19:12;;;;;;;1.67;1.57;;;6.90;99.90;;;;;;5027767;28;20198;-48
2023/01/09 07:21:42;;;;;;;2.40;2.20;;;6.90;99.90;;;;;;5029112;28;20207;-48
2023/01/09 07:24:08;;;;;;;3.30;2.47;;;6.90;99.90;;;;;;5010320;28;20204;-52
2023/01/09 07:26:35;;;;;;;3.40;3.10;;;6.80;99.90;;;;;;5038084;28;20200;-50
2023/01/09 07:29:02;;;;;;;4.10;3.30;;;6.80;99.90;;;;;;5020864;28;20212;-46
2023/01/09 07:31:29;;;;;;;4.23;3.83;;;6.80;99.90;;;;;;5026412;28;20200;-53
2023/01/09 07:33:56;;;;;;;4.07;3.10;;;6.80;99.90;;;;;;5023712;28;20258;-46
2023/01/09 07:36:24;;;;;;;8.50;4.23;;;6.80;99.90;;;;;;5025385;28;20680;-56
2023/01/09 07:38:51;;;;;;;8.57;4.60;;;6.80;99.90;;;;;;5020507;28;20583;-45
2023/01/09 07:41:18;;;;;;;7.57;4.93;;;6.80;99.90;;;;;;5015003;28;20204;-53
2023/01/09 07:43:45;;;;;;;15.47;6.87;;;6.80;99.90;;;;;;5031550;28;20191;-46
2023/01/09 07:46:12;;;;;;;19.07;7.70;;;6.90;99.90;;;;;;5029667;28;20215;-50
2023/01/09 07:48:39;;;;;;;13.23;6.13;;;6.90;99.90;;;;;;5024677;28;20227;-49
2023/01/09 07:51:09;;;;;;;21.67;7.27;;;6.90;99.90;;;;;;5028329;28;20196;-55
2023/01/09 07:53:37;;;;;;;15.60;6.73;;;6.80;99.90;;;;;;5039355;28;20213;-51
2023/01/09 07:56:04;;;;;;;18.67;7.70;;;6.90;99.90;;;;;;5018757;28;20212;-49
2023/01/09 07:58:31;;;;;;;17.47;7.67;;;6.80;99.90;;;;;;5035014;28;20234;-49
2023/01/09 08:00:58;;;;;;;20.37;8.87;;;6.80;99.90;;;;;;5034206;28;20270;-45
2023/01/09 08:03:25;;;;;;;24.30;9.63;;;6.80;99.90;;;;;;5031577;28;20212;-50
2023/01/09 08:05:52;;;;;;;12.00;6.77;;;6.80;99.90;;;;;;5031318;28;20223;-47
2023/01/09 08:08:19;;;;;;;18.53;8.47;;;6.80;99.90;;;;;;5030785;28;20249;-50
2023/01/09 08:10:47;;;;;;;16.33;7.37;;;6.80;99.90;;;;;;5032911;28;20544;-43
2023/01/09 08:13:13;;;;;;;8.90;6.87;;;6.80;99.90;;;;;;5021316;28;20297;-54
2023/01/09 08:15:40;;;;;;;19.40;8.13;;;6.80;99.90;;;;;;5035544;28;20195;-53
2023/01/09 08:18:07;;;;;;;12.83;7.63;;;6.80;99.90;;;;;;5028136;28;20215;-49
2023/01/09 08:20:34;;;;;;;6.53;5.90;;;6.80;99.90;;;;;;5042024;28;20196;-54
2023/01/09 08:23:00;;;;;;;6.27;5.67;;;6.80;99.90;;;;;;5026584;28;20203;-44
2023/01/09 08:25:27;;;;;;;10.00;6.47;;;6.80;99.90;;;;;;5035299;28;21476;-53
2023/01/09 08:27:55;;;;;;;9.60;6.17;;;6.70;99.90;;;;;;5013309;28;20229;-46
2023/01/09 08:30:22;;;;;;;9.17;6.60;;;6.80;99.90;;;;;;5029932;28;20289;-54
2023/01/09 08:32:49;;;;;;;7.23;6.37;;;6.70;99.90;;;;;;5030266;28;20203;-44
2023/01/09 08:35:16;;;;;;;14.43;7.70;;;6.70;99.90;;;;;;5031450;28;20188;-51
2023/01/09 08:37:43;;;;;;;10.77;7.50;;;6.70;99.90;;;;;;5033116;28;20224;-55
2023/01/09 08:40:12;;;;;;;11.10;7.80;;;6.70;99.90;;;;;;5024481;28;20923;-49
2023/01/09 08:48:09;;;;;;;11.50;6.67;;;6.60;99.90;;;;;;5027118;28;20215;-49
2023/01/09 08:50:36;;;;;;;11.80;7.27;;;6.70;99.90;;;;;;5034635;28;20196;-55
2023/01/09 08:53:03;;;;;;;11.47;6.87;;;6.60;99.90;;;;;;5027227;28;20291;-47
2023/01/09 08:55:30;;;;;;;11.90;7.43;;;6.60;99.90;;;;;;5023914;28;20192;-56
2023/01/09 08:57:57;;;;;;;7.80;6.63;;;6.70;99.90;;;;;;5022028;28;20717;-47
2023/01/09 09:00:26;;;;;;;15.43;8.43;;;6.70;99.90;;;;;;5029416;28;20291;-47
2023/01/09 09:02:53;;;;;;;14.17;7.37;;;6.70;99.90;;;;;;5030757;28;20721;-47
2023/01/09 09:05:21;;;;;;;15.07;7.57;;;6.70;99.90;;;;;;5025769;28;20325;-46
2023/01/09 09:07:48;;;;;;;12.73;7.77;;;6.70;99.90;;;;;;5023870;28;20232;-49
2023/01/09 09:10:16;;;;;;;12.43;7.67;;;6.80;99.90;;;;;;5028043;28;20904;-48
2023/01/09 09:12:43;;;;;;;11.10;7.00;;;6.80;99.90;;;;;;5020284;28;20210;-53
2023/01/09 09:15:15;;;;;;;10.27;7.43;;;6.80;99.90;;;;;;5033631;28;20491;-44
2023/01/09 09:17:44;;;;;;;12.80;8.30;;;6.80;99.90;;;;;;5024879;28;20278;-50
2023/01/09 09:20:12;;;;;;;6.17;5.57;;;6.80;99.90;;;;;;5020642;28;20196;-48
2023/01/09 09:22:38;;;;;;;13.17;7.90;;;6.90;99.90;;;;;;5030758;28;20191;-46
2023/01/09 09:25:06;;;;;;;13.10;6.70;;;6.90;99.90;;;;;;5017371;28;20215;-45
2023/01/09 09:27:33;;;;;;;9.37;7.10;;;6.90;99.90;;;;;;5019046;28;20585;-46
2023/01/09 09:29:59;;;;;;;11.80;6.80;;;6.90;99.90;;;;;;5025183;28;20542;-49
2023/01/09 09:32:26;;;;;;;14.33;8.00;;;7.00;99.90;;;;;;5031878;28;20195;-45
2023/01/09 09:34:54;;;;;;;8.93;6.90;;;7.00;99.90;;;;;;5036133;28;20201;-52
2023/01/09 09:37:20;;;;;;;11.70;7.43;;;7.00;99.90;;;;;;5036899;28;20211;-50
2023/01/09 09:39:47;;;;;;;11.40;7.53;;;7.00;99.90;;;;;;5035242;28;20603;-51
2023/01/09 09:45:39;;;;;;;8.30;7.00;;;7.00;99.90;;;;;;5029993;28;20580;-44
2023/01/09 09:48:18;;;;;;;13.33;7.50;;;7.00;99.90;;;;;;5021217;28;20219;-48
2023/01/09 09:51:09;;;;;;;13.97;8.17;;;7.00;99.90;;;;;;5032865;28;20206;-48
2023/01/09 09:53:41;;;;;;;13.47;8.17;;;7.00;99.90;;;;;;5032743;28;20196;-50
2023/01/09 09:56:11;;;;;;;15.67;9.70;;;7.00;99.90;;;;;;5028624;28;20179;-47
2023/01/09 09:58:41;;;;;;;11.70;9.23;;;7.00;99.90;;;;;;5014313;28;20219;-47
2023/01/09 10:01:11;;;;;;;21.20;9.60;;;7.00;99.90;;;;;;5025693;28;20196;-47
2023/01/09 10:03:44;;;;;;;16.47;9.53;;;7.00;99.90;;;;;;5026924;28;20206;-45
2023/01/09 10:06:27;;;;;;;15.10;7.87;;;7.00;99.90;;;;;;5022797;28;21112;-44
2023/01/09 10:09:01;;;;;;;11.57;7.67;;;7.00;99.90;;;;;;5033112;28;20292;-48
2023/01/09 10:11:36;;;;;;;12.20;8.00;;;7.00;99.90;;;;;;5039771;28;20199;-46
2023/01/09 10:14:05;;;;;;;11.40;7.23;;;7.00;99.90;;;;;;5012588;28;20618;-53
2023/01/09 10:16:45;;;;;;;11.93;7.70;;;6.90;99.90;;;;;;5030249;28;20569;-50
2023/01/09 10:19:27;;;;;;;8.70;6.17;;;6.90;99.90;;;;;;5023675;28;20200;-48
2023/01/09 10:22:06;;;;;;;18.83;8.30;;;6.90;99.90;;;;;;5041800;28;20590;-47
2023/01/09 10:24:51;;;;;;;9.63;6.83;;;6.90;99.90;;;;;;5031370;28;20195;-49
2023/01/09 10:27:30;;;;;;;13.00;6.83;;;6.80;99.90;;;;;;5026257;28;20219;-49
2023/01/09 10:30:09;;;;;;;10.60;6.33;;;6.90;99.90;;;;;;5011100;28;20218;-55
2023/01/09 10:32:50;;;;;;;9.37;6.27;;;6.90;99.90;;;;;;5028692;28;20208;-49
2023/01/09 10:35:41;;;;;;;7.73;5.50;;;6.80;99.90;;;;;;5023341;28;20204;-44
2023/01/09 10:38:13;;;;;;;9.47;5.83;;;6.80;99.90;;;;;;5027191;28;20238;-48
2023/01/09 10:40:43;;;;;;;9.23;5.17;;;6.80;99.90;;;;;;5038144;28;20196;-45
2023/01/09 10:43:18;;;;;;;11.03;6.40;;;6.90;99.90;;;;;;5023051;28;20230;-45
2023/01/09 10:45:52;;;;;;;13.47;8.63;;;6.80;99.90;;;;;;5034790;28;20221;-51
2023/01/09 10:48:24;;;;;;;8.87;5.27;;;6.80;99.90;;;;;;5022504;28;20219;-48
2023/01/09 10:50:54;;;;;;;12.63;6.83;;;6.80;99.90;;;;;;5027512;28;20207;-49
2023/01/09 10:53:26;;;;;;;12.17;6.47;;;6.80;99.90;;;;;;5031049;28;20202;-49
2023/01/09 10:55:56;;;;;;;12.30;6.67;;;6.80;99.90;;;;;;5032243;28;20220;-51
2023/01/09 10:58:24;;;;;;;7.77;5.03;;;6.80;99.90;;;;;;5027424;28;20289;-44
2023/01/09 11:00:51;;;;;;;8.50;5.50;;;6.80;99.90;;;;;;5019156;28;20235;-51
2023/01/09 11:03:20;;;;;;;13.60;5.80;;;6.70;99.90;;;;;;5022317;28;20199;-52
2023/01/09 11:05:50;;;;;;;8.43;5.67;;;6.70;99.90;;;;;;5026383;28;20302;-51
2023/01/09 11:08:25;;;;;;;13.23;6.50;;;6.70;99.90;;;;;;5027717;28;20207;-49
2023/01/09 11:10:53;;;;;;;15.40;6.97;;;6.80;99.90;;;;;;5036106;28;20646;-51
2023/01/09 11:13:22;;;;;;;11.27;5.27;;;6.80;99.90;;;;;;5039996;28;20277;-49
2023/01/09 11:16:05;;;;;;;8.83;4.63;;;6.80;99.90;;;;;;5019304;28;20656;-52
2023/01/09 11:18:33;;;;;;;9.00;5.10;;;6.70;99.90;;;;;;5030928;28;20234;-44
2023/01/09 11:21:14;;;;;;;11.73;4.80;;;6.70;99.90;;;;;;5032467;28;20230;-51
2023/01/09 11:23:42;;;;;;;8.87;4.07;;;6.70;99.90;;;;;;5022097;28;20659;-50
2023/01/09 11:26:22;;;;;;;8.57;4.73;;;6.70;99.90;;;;;;5033039;28;20282;-47
2023/01/09 11:29:06;;;;;;;6.80;3.60;;;6.70;99.90;;;;;;5032889;28;20226;-49
2023/01/09 11:31:33;;;;;;;7.60;4.40;;;6.80;99.90;;;;;;5029155;28;20210;-48
2023/01/09 11:34:01;;;;;;;6.97;4.10;;;6.80;99.90;;;;;;5015573;28;20854;-50
2023/01/09 11:36:28;;;;;;;7.83;4.60;;;6.80;99.90;;;;;;5039169;28;20694;-49
2023/01/09 11:38:58;;;;;;;8.60;4.13;;;6.90;99.90;;;;;;5028879;28;20215;-52
2023/01/09 11:41:26;;;;;;;6.53;4.33;;;7.00;99.90;;;;;;5032436;28;20204;-47
2023/01/09 11:43:56;;;;;;;11.00;4.50;;;7.00;99.90;;;;;;5038565;28;20238;-48
2023/01/09 11:46:33;;;;;;;13.63;5.20;;;7.10;99.90;;;;;;5027117;28;20219;-52
2023/01/09 11:49:02;;;;;;;9.10;5.10;;;7.20;99.90;;;;;;5015849;28;20562;-52
2023/01/09 11:51:30;;;;;;;12.77;5.03;;;7.30;99.90;;;;;;5034973;28;21819;-49
2023/01/09 11:54:16;;;;;;;8.63;4.50;;;7.30;99.90;;;;;;5033035;28;20208;-52
2023/01/09 11:56:44;;;;;;;13.53;4.30;;;7.40;99.90;;;;;;5028414;28;20258;-48
2023/01/09 11:59:12;;;;;;;11.43;4.87;;;7.50;99.90;;;;;;5037299;28;20191;-45
2023/01/09 12:02:05;;;;;;;9.33;3.87;;;7.50;99.90;;;;;;5030851;28;20207;-50
2023/01/09 12:04:35;;;;;;;10.23;4.83;;;7.50;99.90;;;;;;5023453;28;20211;-46
2023/01/09 12:07:32;;;;;;;6.63;3.80;;;7.60;99.90;;;;;;5024687;28;20282;-45
2023/01/09 12:10:11;;;;;;;7.97;4.80;;;7.60;99.90;;;;;;5014657;28;20218;-49
2023/01/09 12:12:49;;;;;;;7.20;4.37;;;7.60;99.90;;;;;;5033298;28;20199;-52
2023/01/09 12:15:25;;;;;;;8.00;4.33;;;7.70;99.90;;;;;;5035011;28;20507;-53
2023/01/09 12:18:04;;;;;;;6.17;3.63;;;7.80;99.90;;;;;;5031313;28;20227;-48
2023/01/09 12:20:41;;;;;;;11.17;3.97;;;7.70;99.90;;;;;;5010502;28;20199;-47
2023/01/09 12:23:25;;;;;;;8.63;4.10;;;7.80;99.90;;;;;;5032058;28;20195;-48
2023/01/09 12:26:05;;;;;;;9.33;3.77;;;7.80;99.90;;;;;;5025786;28;20266;-46
2023/01/09 12:28:45;;;;;;;9.47;4.20;;;7.70;99.90;;;;;;5048063;28;20227;-45
2023/01/09 12:31:24;;;;;;;7.23;3.17;;;7.70;99.90;;;;;;5036957;28;20195;-52
2023/01/09 12:34:00;;;;;;;6.13;3.63;;;7.70;99.90;;;;;;5016268;28;20207;-46
2023/01/09 12:36:36;;;;;;;7.33;3.47;;;7.60;99.90;;;;;;5031578;28;20205;-51
2023/01/09 12:39:15;;;;;;;7.03;3.67;;;7.70;99.90;;;;;;5031319;28;20713;-47
2023/01/09 12:42:04;;;;;;;9.17;3.37;;;7.70;99.90;;;;;;5023926;28;20912;-49
2023/01/09 12:44:48;;;;;;;12.60;4.70;;;7.70;99.90;;;;;;5028987;28;20195;-47
2023/01/09 12:47:40;;;;;;;5.80;4.23;;;7.60;99.90;;;;;;5027401;28;20273;-50
2023/01/09 12:50:26;;;;;;;5.90;3.87;;;7.60;99.90;;;;;;5012838;28;20212;-48
2023/01/09 12:53:09;;;;;;;7.67;3.97;;;7.60;99.90;;;;;;5027121;28;20227;-50
2023/01/09 12:55:40;;;;;;;11.37;4.33;;;7.60;99.90;;;;;;5028501;28;20896;-47
2023/01/09 12:58:16;;;;;;;6.83;3.97;;;7.60;99.90;;;;;;5030581;28;20310;-50
2023/01/09 13:00:47;;;;;;;8.20;3.73;;;7.60;99.90;;;;;;5035895;28;20183;-49
2023/01/09 13:03:20;;;;;;;6.87;4.13;;;7.60;99.90;;;;;;5037478;28;20227;-51
2023/01/09 13:05:50;;;;;;;7.10;4.43;;;7.60;99.90;;;;;;5012443;28;20224;-50
2023/01/09 13:08:21;;;;;;;13.23;5.17;;;7.50;99.90;;;;;;5030215;28;20709;-53
2023/01/09 13:10:51;;;;;;;11.30;5.40;;;7.50;99.90;;;;;;5028438;28;20196;-48
2023/01/09 13:13:24;;;;;;;8.60;4.37;;;7.50;99.90;;;;;;5025069;28;20212;-52
2023/01/09 13:15:56;;;;;;;21.67;8.73;;;7.60;99.90;;;;;;5032334;28;20199;-44
2023/01/09 13:18:29;;;;;;;16.67;6.93;;;7.50;99.90;;;;;;5022787;28;20223;-52
2023/01/09 13:20:56;;;;;;;7.60;5.57;;;7.60;99.90;;;;;;5019442;28;20353;-50
2023/01/09 13:23:33;;;;;;;7.37;5.20;;;7.50;99.90;;;;;;5029542;28;20195;-52
2023/01/09 13:26:04;;;;;;;9.33;5.27;;;7.60;99.90;;;;;;5041423;28;20645;-49